الصفحة الرئيسية
METAR-TAF:

METAR-TAF

مطار :

مطار ودون ثاني

Udon Thani, تايلاند

دائرة عرض: 17-23N, خط طول: 102-48E, ارتفاع: 177 متر

مراقبة الطقس الحالي

تاريخ ووقت الإصدار 21 دقيقة قبل الساعة 23:00UTC
ريح 1 عقدةمن اتجاهات متغيرة
درجة الحرارة 25°درجة مئوية
الرطوبة 100%
ضغط 1009 hPa
الرؤية: 8000 متر
غيوم قليلة على ارتفاع 3000 قدم
غيوم مفككة على ارتفاع 10000 قدم

METAR: VTUD 162300Z VRB01KT 8000 FEW030 BKN100 25/25 Q1009 NOSIG

زمن: 06:21 (23:21 UTC)

توقعات

تاريخ ووقت الإصدار 6ساعات و 21 دقيقة قبل الساعة 17:00UTC
التوقعات صالحة من16 الساعة 18 UTC إلى 17 الساعة 18 UTC
ريح 5 عقدة من الجنوب الغربي
الرؤية: 9000 متر
غيوم متفرقة على ارتفاع 3000 قدم
مؤقت
من 17 الساعة 07 UTC إلى 17 الساعة 13 UTC
ريح 15 عقدةمن اتجاهات متغيرة
الرؤية: 4000 متر
غيوم قليلة على ارتفاع 1800 قدم, مزنة ركامية.
غيوم مفككة على ارتفاع 2000 قدم
غيوم مفككة على ارتفاع 8000 قدم
عاصفة رعدية, مطر

TAF: VTUD 161700Z 1618/1718 22005KT 9000 SCT030 TEMPO 1707/1713 VRB15KT 4000 TSRA FEW018CB BKN020 BKN080

أرصاد الطقس والتوقعات من أكثر من 4000 مطار (تقارير الطقس للمطار METAR والتنبؤ بالطقس بالمطارTAF).

المحطات المتاحة هي النقط الصفراء والحمراء على الخريطة.

حرك المؤشر فوق النقطة لمعرفة اسم المحطة.

ثم انقر لمعرفة أرصاد وتوقعات الطقس.

لتغيير الخارطة: اضغط على الأزرار الخضراء مع رمز الصليب الأسود للتكبير. على الزر الأخضر مع شرطة للتصغير، أو على الأسهم الخضراء للخرائط المجاورة.


METAR-TAF: